Time;durP1;ratioP1;P1;durP2;ratioP2;P2;SDS_P1;SDS_P2;PMS_P1;PMS_P2;Temp;Humidity;BMP_temperature;BMP_pressure;BME280_temperature;BME280_humidity;BME280_pressure;Samples;Min_cycle;Max_cycle;Signal;HPM_P1;HPM_P2
2023/06/02 04:15:42;;;;;;;19.98;13.00;;;;;;;14.92;100.00;99927.72;5559051;32;181752;-86
2023/06/02 04:18:46;;;;;;;17.40;12.75;;;;;;;15.00;100.00;99926.28;5544559;32;33792;-85
2023/06/02 04:21:49;;;;;;;14.23;11.77;;;;;;;15.14;100.00;99928.75;5546732;32;33803;-85
2023/06/02 04:24:52;;;;;;;18.75;11.38;;;;;;;15.29;100.00;99931.22;5552031;32;33349;-85
2023/06/02 04:27:55;;;;;;;15.80;11.95;;;;;;;15.45;100.00;99929.06;5547969;32;33272;-85
2023/06/02 04:30:59;;;;;;;16.77;11.40;;;;;;;15.70;100.00;99931.66;5544411;32;33494;-84
2023/06/02 04:34:02;;;;;;;13.85;10.52;;;;;;;15.97;100.00;99925.13;5544380;32;33894;-85
2023/06/02 04:37:05;;;;;;;19.10;11.07;;;;;;;16.17;100.00;99934.22;5553108;32;33712;-86
2023/06/02 04:40:08;;;;;;;12.35;10.82;;;;;;;16.42;100.00;99929.56;5556247;32;33681;-86
2023/06/02 04:43:11;;;;;;;18.80;10.63;;;;;;;16.67;100.00;99930.22;5554000;32;34267;-86
2023/06/02 04:46:14;;;;;;;14.70;10.82;;;;;;;16.89;100.00;99925.75;5543791;32;33378;-85
2023/06/02 04:49:17;;;;;;;17.52;10.48;;;;;;;17.06;100.00;99919.00;5543601;32;33514;-86
2023/06/02 04:52:20;;;;;;;15.20;10.30;;;;;;;17.30;100.00;99924.09;5545962;32;33684;-86
2023/06/02 04:55:23;;;;;;;14.32;10.75;;;;;;;17.55;100.00;99927.34;5543464;32;33540;-86
2023/06/02 04:58:26;;;;;;;18.87;10.82;;;;;;;17.73;100.00;99924.91;5543343;32;33509;-86
2023/06/02 05:01:29;;;;;;;16.92;10.05;;;;;;;17.87;100.00;99926.38;5546474;32;33702;-85
2023/06/02 05:04:34;;;;;;;12.50;9.95;;;;;;;18.20;100.00;99928.06;5548427;32;33926;-86
2023/06/02 05:07:38;;;;;;;12.98;9.68;;;;;;;18.51;100.00;99919.94;5543376;32;33848;-87
2023/06/02 05:10:40;;;;;;;19.35;9.93;;;;;;;18.59;100.00;99918.25;5543150;32;33846;-86
2023/06/02 05:13:45;;;;;;;13.10;10.55;;;;;;;19.05;100.00;99919.56;5543302;32;34934;-86
2023/06/02 05:16:48;;;;;;;14.05;9.15;;;;;;;19.72;100.00;99919.53;5542363;32;34120;-86
2023/06/02 05:19:53;;;;;;;12.75;9.18;;;;;;;19.91;100.00;99929.38;5543529;32;33981;-86
2023/06/02 05:22:56;;;;;;;14.75;8.90;;;;;;;20.96;100.00;99913.88;5542952;32;33620;-86
2023/06/02 05:26:01;;;;;;;12.43;9.43;;;;;;;23.82;86.10;99926.84;5534134;32;34527;-86
2023/06/02 05:29:04;;;;;;;12.85;8.48;;;;;;;26.98;71.96;99923.88;5529619;32;33410;-86
2023/06/02 05:32:08;;;;;;;11.70;7.95;;;;;;;29.19;56.22;99926.97;5525375;32;33492;-86
2023/06/02 05:35:11;;;;;;;10.85;7.72;;;;;;;30.09;46.52;99927.47;5529516;32;34256;-91
2023/06/02 05:38:17;;;;;;;9.18;7.03;;;;;;;31.34;41.02;99932.59;5527307;32;33954;-90
2023/06/02 05:41:21;;;;;;;8.57;7.15;;;;;;;31.38;40.99;99941.19;5529560;32;34063;-88
2023/06/02 05:44:24;;;;;;;10.77;7.90;;;;;;;32.11;38.78;99938.72;5530184;32;33664;-87
2023/06/02 05:47:30;;;;;;;10.70;6.57;;;;;;;32.61;37.90;99940.41;5523665;32;34100;-87
2023/06/02 05:50:33;;;;;;;9.73;7.05;;;;;;;31.59;39.77;99937.19;5526363;32;33473;-86
2023/06/02 05:53:36;;;;;;;13.40;8.25;;;;;;;31.89;39.51;99932.87;5523605;32;32921;-87
2023/06/02 05:56:40;;;;;;;11.82;8.23;;;;;;;30.63;40.35;99938.97;5528012;32;34205;-87
2023/06/02 05:59:43;;;;;;;13.27;7.70;;;;;;;28.10;47.31;99935.94;5525684;32;33885;-87
2023/06/02 06:02:46;;;;;;;9.15;7.80;;;;;;;29.04;46.74;99928.03;5525904;32;33399;-90
2023/06/02 06:05:50;;;;;;;9.55;7.22;;;;;;;30.55;41.98;99928.28;5524947;32;33734;-88
2023/06/02 06:08:53;;;;;;;11.45;8.05;;;;;;;30.19;42.66;99938.78;5525220;32;33555;-88
2023/06/02 06:11:56;;;;;;;9.18;7.75;;;;;;;28.82;45.33;99927.38;5527687;32;33818;-87
2023/06/02 06:15:00;;;;;;;11.55;7.62;;;;;;;27.39;48.79;99930.47;5530957;32;34943;-87
2023/06/02 06:18:03;;;;;;;9.48;8.43;;;;;;;27.03;50.84;99935.03;5530109;32;33536;-88
2023/06/02 06:21:06;;;;;;;10.40;8.23;;;;;;;27.41;51.18;99927.56;5528952;32;34262;-87
2023/06/02 06:24:09;;;;;;;12.93;7.82;;;;;;;27.20;52.47;99923.00;5515594;32;33453;-87
2023/06/02 06:27:12;;;;;;;15.27;8.13;;;;;;;29.10;47.66;99925.53;5525499;32;32163;-87
2023/06/02 06:30:17;;;;;;;10.35;7.37;;;;;;;29.73;45.39;99932.41;5529919;32;33688;-89
2023/06/02 06:33:21;;;;;;;13.95;8.90;;;;;;;30.31;43.54;99940.84;5522522;32;33854;-87
2023/06/02 06:36:24;;;;;;;15.73;7.85;;;;;;;29.49;43.65;99940.22;5525791;32;33917;-88
2023/06/02 06:39:26;;;;;;;11.98;8.45;;;;;;;27.91;48.44;99938.34;5524958;32;34887;-86
2023/06/02 07:24:47;;;;;;;13.20;7.18;;;;;;;28.20;47.22;99936.41;3044004;26;20135;-88
2023/06/02 07:27:50;;;;;;;9.65;6.90;;;;;;;29.08;44.73;99927.59;5536544;32;33522;-90
2023/06/02 07:30:53;;;;;;;12.63;7.07;;;;;;;29.45;43.69;99926.13;5540340;32;34172;-89
2023/06/02 07:34:12;;;;;;;10.90;7.50;;;;;;;29.38;42.51;99930.75;5538483;32;33402;-89
2023/06/02 07:37:15;;;;;;;12.55;7.68;;;;;;;29.24;43.63;99927.19;5552537;32;34444;-90
2023/06/02 07:40:19;;;;;;;11.50;6.95;;;;;;;29.48;42.65;99929.50;5551274;32;34116;-91
2023/06/02 07:43:21;;;;;;;9.88;7.12;;;;;;;29.50;42.63;99921.94;5548291;32;33937;-91
2023/06/02 07:46:24;;;;;;;10.20;7.93;;;;;;;29.72;42.68;99917.87;5541222;32;34820;-91
2023/06/02 07:49:27;;;;;;;10.02;6.90;;;;;;;29.75;43.47;99918.53;5540758;32;32350;-91
2023/06/02 07:52:30;;;;;;;15.98;7.95;;;;;;;29.58;42.06;99919.81;5548881;32;33921;-91
2023/06/02 07:55:33;;;;;;;10.75;7.87;;;;;;;29.14;43.09;99927.63;5544162;32;34859;-91
2023/06/02 07:58:45;;;;;;;10.55;7.55;;;;;;;28.58;45.59;99924.19;5539241;31;33542;-91
2023/06/02 08:01:47;;;;;;;22.23;7.53;;;;;;;28.34;46.28;99925.56;5544264;31;34659;-89
2023/06/02 08:04:53;;;;;;;10.88;7.20;;;;;;;27.31;47.32;99927.91;5549078;32;32494;-91
2023/06/02 08:34:41;;;;;;;10.38;6.90;;;;;;;32.19;35.11;99921.97;4927066;30;20168;-93
2023/06/02 08:37:44;;;;;;;7.65;6.53;;;;;;;32.07;34.92;99913.66;5515933;32;33767;-90
2023/06/02 08:40:49;;;;;;;9.93;6.82;;;;;;;32.85;36.02;99909.44;5510185;32;34869;-90
2023/06/02 08:43:52;;;;;;;10.52;6.53;;;;;;;32.72;33.20;99908.56;5511060;32;34979;-89
2023/06/02 08:46:56;;;;;;;7.53;6.00;;;;;;;31.32;36.78;99904.59;5531464;32;34177;-89
2023/06/02 08:50:02;;;;;;;13.07;6.57;;;;;;;31.96;35.13;99904.31;5532005;26;31088;-90
2023/06/02 08:53:11;;;;;;;9.05;6.12;;;;;;;30.58;36.76;99902.37;5547622;32;34105;-89
2023/06/02 09:46:23;;;;;;;9.00;5.55;;;;;;;29.58;36.65;99873.34;1605811;26;20392;-89
2023/06/02 09:49:37;;;;;;;7.22;5.12;;;;;;;31.25;34.02;99870.87;5544534;32;35261;-89
2023/06/02 09:52:40;;;;;;;11.88;5.80;;;;;;;31.60;33.95;99868.44;5550031;31;34016;-90
2023/06/02 09:55:44;;;;;;;12.15;5.10;;;;;;;30.61;36.40;99869.09;5542577;32;33821;-91
2023/06/02 09:58:47;;;;;;;13.80;6.05;;;;;;;30.71;35.34;99871.37;5556936;26;34595;-90
2023/06/02 10:05:37;;;;;;;8.05;4.95;;;;;;;28.11;36.65;99891.28;5389106;29;20190;-89
2023/06/02 10:08:55;;;;;;;11.52;5.37;;;;;;;27.09;38.74;99887.09;5560524;31;33449;-91
2023/06/02 10:43:10;;;;;;;9.55;5.95;;;;;;;24.15;47.98;99909.66;5404820;29;20134;-89
2023/06/02 10:46:17;;;;;;;14.63;5.78;;;;;;;24.21;48.94;99891.81;5575843;31;34056;-92
2023/06/02 10:50:05;;;;;;;8.65;5.35;;;;;;;24.15;48.69;99892.53;5575482;31;33462;-89
2023/06/02 10:53:14;;;;;;;10.70;5.75;;;;;;;24.12;50.19;99871.22;5575964;31;36555;-88
2023/06/02 10:56:35;;;;;;;7.30;5.68;;;;;;;24.66;49.40;99874.94;5580332;31;34978;-88
2023/06/02 10:59:38;;;;;;;8.52;5.70;;;;;;;26.16;46.43;99868.81;5596907;26;34044;-89
2023/06/02 11:02:41;;;;;;;11.73;5.78;;;;;;;27.72;41.56;99869.09;5549124;32;34083;-90
2023/06/02 11:05:46;;;;;;;6.53;5.20;;;;;;;29.73;35.90;99867.62;5548979;32;33451;-90
2023/06/02 11:08:51;;;;;;;10.82;5.55;;;;;;;29.92;35.32;99864.22;5545445;32;33794;-87
2023/06/02 11:11:55;;;;;;;6.20;5.00;;;;;;;29.27;37.38;99858.47;5548821;32;34651;-89
2023/06/02 11:15:01;;;;;;;7.60;5.20;;;;;;;29.61;35.72;99850.22;5546224;32;34836;-88
2023/06/02 11:18:22;;;;;;;7.32;5.18;;;;;;;29.54;35.51;99850.25;5548565;32;32636;-88
2023/06/02 11:21:25;;;;;;;9.57;5.35;;;;;;;29.83;34.66;99845.31;5549660;32;34379;-88
2023/06/02 11:24:29;;;;;;;9.57;5.28;;;;;;;28.66;36.31;99852.22;5548127;32;33900;-88
2023/06/02 11:27:49;;;;;;;9.55;5.80;;;;;;;27.69;38.97;99858.59;5549664;31;34413;-88
2023/06/02 11:34:48;;;;;;;8.82;5.28;;;;;;;26.64;39.73;99869.13;847872;29;21267;-89
2023/06/02 11:38:04;;;;;;;8.98;5.97;;;;;;;25.87;41.97;99865.97;5584095;31;32974;-87
2023/06/02 11:41:15;;;;;;;10.15;6.00;;;;;;;24.91;44.24;99870.19;5577311;31;33687;-87
2023/06/02 11:44:18;;;;;;;11.52;5.97;;;;;;;24.47;46.71;99869.81;5571036;31;33687;-86
2023/06/02 11:47:21;;;;;;;7.00;5.70;;;;;;;24.35;47.79;99877.50;5577567;31;33919;-87
2023/06/02 11:50:27;;;;;;;15.38;6.28;;;;;;;24.66;47.34;99892.06;5583549;31;33520;-88
2023/06/02 11:53:30;;;;;;;8.45;5.87;;;;;;;24.33;50.54;99900.38;5619395;26;34706;-88
2023/06/02 11:56:35;;;;;;;8.43;6.18;;;;;;;23.42;60.48;99904.25;5562666;32;32338;-87
2023/06/02 11:59:37;;;;;;;15.63;7.03;;;;;;;23.32;64.11;99893.63;5561187;32;34455;-87
2023/06/02 12:02:43;;;;;;;8.23;6.25;;;;;;;23.18;65.67;99886.19;5558671;32;33984;-89
2023/06/02 12:05:49;;;;;;;10.48;7.53;;;;;;;23.34;65.05;99886.22;5554941;32;34059;-89
2023/06/02 12:08:52;;;;;;;8.75;6.53;;;;;;;23.52;65.25;99882.41;5556816;32;33940;-88
2023/06/02 12:12:06;;;;;;;7.97;6.50;;;;;;;23.34;66.06;99888.06;5555691;32;33685;-88
2023/06/02 12:15:14;;;;;;;9.70;6.45;;;;;;;23.06;68.42;99877.56;5554842;32;33348;-88
2023/06/02 12:18:27;;;;;;;6.97;6.15;;;;;;;23.08;66.24;99875.56;5555644;32;35044;-87
2023/06/02 12:21:31;;;;;;;10.02;6.22;;;;;;;23.09;65.55;99864.53;5556497;32;33652;-86
2023/06/02 12:24:38;;;;;;;6.55;5.87;;;;;;;22.98;65.29;99859.50;5558157;32;33809;-88
2023/06/02 12:27:41;;;;;;;8.35;5.72;;;;;;;22.89;63.42;99847.84;5554925;32;34654;-91
2023/06/02 12:30:46;;;;;;;7.40;5.70;;;;;;;23.04;61.69;99849.84;5562003;32;34268;-89
2023/06/02 12:33:49;;;;;;;5.90;5.30;;;;;;;23.64;56.41;99842.31;5565632;32;34442;-86
2023/06/02 12:36:52;;;;;;;6.60;5.00;;;;;;;24.20;54.39;99839.47;5554678;32;33559;-88
2023/06/02 12:39:55;;;;;;;6.65;5.05;;;;;;;24.82;50.43;99838.72;5555978;32;32739;-88
2023/06/02 12:42:59;;;;;;;7.03;5.32;;;;;;;25.41;48.35;99832.53;5566956;32;33803;-87
2023/06/02 12:46:03;;;;;;;5.53;5.03;;;;;;;25.87;46.87;99830.63;5563191;32;33818;-87
2023/06/02 12:49:08;;;;;;;9.77;5.95;;;;;;;26.25;45.14;99818.78;5561357;32;33749;-88
2023/06/02 12:52:11;;;;;;;7.37;5.25;;;;;;;26.31;44.79;99814.41;5557480;32;34401;-86
2023/06/02 12:55:18;;;;;;;7.40;5.07;;;;;;;26.61;43.72;99814.28;5571304;26;34627;-89
2023/06/02 12:58:21;;;;;;;7.32;5.15;;;;;;;26.96;43.86;99808.09;5574463;31;34590;-90
2023/06/02 13:01:24;;;;;;;7.45;5.12;;;;;;;27.36;42.98;99810.22;5560226;32;34204;-87
2023/06/02 13:04:27;;;;;;;6.03;4.78;;;;;;;27.51;41.17;99808.19;5567576;32;33369;-88
2023/06/02 13:07:30;;;;;;;9.45;5.43;;;;;;;27.65;40.91;99800.97;5559640;32;33975;-91
2023/06/02 13:21:56;;;;;;;9.45;4.72;;;;;;;28.35;36.85;99785.44;968277;26;20368;-86
2023/06/02 13:24:59;;;;;;;6.35;4.65;;;;;;;28.16;37.64;99790.63;5553242;32;32540;-88
2023/06/02 13:31:44;;;;;;;9.98;4.65;;;;;;;28.77;37.04;99780.59;5605964;26;20061;-88
2023/06/02 13:34:55;;;;;;;7.32;4.62;;;;;;;28.90;37.06;99776.22;5574075;32;33584;-88
2023/06/02 13:37:58;;;;;;;8.48;4.25;;;;;;;28.52;36.98;99786.72;5561837;32;34176;-88
2023/06/02 13:41:01;;;;;;;6.55;4.03;;;;;;;28.85;36.68;99785.00;5563518;32;34224;-90
